Time;durP1;ratioP1;P1;durP2;ratioP2;P2;SDS_P1;SDS_P2;PMS_P1;PMS_P2;Temp;Humidity;BMP_temperature;BMP_pressure;BME280_temperature;BME280_humidity;BME280_pressure;Samples;Min_cycle;Max_cycle;Signal;HPM_P1;HPM_P2
2024/04/01 00:01:00;;;;;;;3.53;2.50;;;13.90;99.90;;;;;;5032098;28;20463;-80
2024/04/01 00:03:26;;;;;;;4.17;2.57;;;13.90;99.90;;;;;;5036813;28;20444;-81
2024/04/01 00:05:54;;;;;;;10.30;3.90;;;14.00;99.90;;;;;;5035228;28;20449;-79
2024/04/01 00:08:21;;;;;;;7.57;2.33;;;13.90;99.90;;;;;;5018968;28;20585;-81
2024/04/01 00:10:48;;;;;;;4.10;2.57;;;13.90;99.90;;;;;;5036987;28;20440;-80
2024/04/01 00:13:15;;;;;;;4.80;2.10;;;13.80;99.90;;;;;;5033564;28;21038;-81
2024/04/01 00:15:44;;;;;;;3.70;2.27;;;13.80;99.90;;;;;;5034430;28;20534;-80
2024/04/01 00:18:10;;;;;;;2.73;2.00;;;13.90;99.90;;;;;;5033932;28;20555;-79
2024/04/01 00:20:37;;;;;;;3.20;1.97;;;13.90;99.90;;;;;;5034418;28;20466;-80
2024/04/01 00:23:04;;;;;;;2.43;2.23;;;13.90;99.90;;;;;;5033897;28;20448;-81
2024/04/01 00:25:32;;;;;;;2.20;2.03;;;13.80;99.90;;;;;;5034716;28;20521;-80
2024/04/01 00:27:58;;;;;;;3.10;2.40;;;13.80;99.90;;;;;;5035798;28;20458;-81
2024/04/01 00:30:28;;;;;;;2.70;2.10;;;13.80;99.90;;;;;;5037710;28;20541;-79
2024/04/01 00:32:56;;;;;;;2.27;2.17;;;13.80;99.90;;;;;;5038504;28;20498;-81
2024/04/01 00:35:23;;;;;;;3.77;2.00;;;13.80;99.90;;;;;;5032785;28;20566;-81
2024/04/01 00:37:49;;;;;;;1.80;1.70;;;13.70;99.90;;;;;;5034098;28;20602;-80
2024/04/01 00:40:16;;;;;;;5.23;2.60;;;13.80;99.90;;;;;;5034452;28;20451;-80
2024/04/01 00:42:44;;;;;;;2.47;1.83;;;13.80;99.90;;;;;;5036959;28;20459;-81
2024/04/01 00:45:11;;;;;;;2.73;2.13;;;13.80;99.90;;;;;;5033406;28;21008;-81
2024/04/01 00:47:37;;;;;;;2.40;2.20;;;13.70;99.90;;;;;;5037297;28;20451;-81
2024/04/01 00:50:07;;;;;;;3.70;2.40;;;13.70;99.90;;;;;;5039672;28;20458;-81
2024/04/01 00:52:33;;;;;;;3.30;2.53;;;13.70;99.90;;;;;;5039239;28;20945;-80
2024/04/01 00:55:01;;;;;;;1.90;1.70;;;13.70;99.90;;;;;;5039227;28;20475;-80
2024/04/01 00:57:27;;;;;;;2.77;1.80;;;13.70;99.90;;;;;;5036483;28;20479;-80
2024/04/01 00:59:55;;;;;;;3.47;2.20;;;13.70;99.90;;;;;;5036988;28;20554;-81
2024/04/01 01:02:22;;;;;;;2.70;2.20;;;13.60;99.90;;;;;;5039608;28;20530;-80
2024/04/01 01:04:50;;;;;;;2.27;2.10;;;13.60;99.90;;;;;;5039559;28;20899;-83
2024/04/01 01:07:18;;;;;;;4.17;2.13;;;13.60;99.90;;;;;;5038290;28;20518;-79
2024/04/01 01:09:47;;;;;;;1.97;1.70;;;13.60;99.90;;;;;;5037104;28;21125;-79
2024/04/01 01:12:14;;;;;;;2.10;2.00;;;13.60;99.90;;;;;;5030982;28;20522;-79
2024/04/01 01:14:41;;;;;;;3.23;1.83;;;13.50;99.90;;;;;;5040019;28;20516;-79
2024/04/01 01:17:07;;;;;;;2.03;1.93;;;13.60;99.90;;;;;;5037151;28;20607;-80
2024/04/01 01:19:34;;;;;;;2.57;2.37;;;13.60;99.90;;;;;;5036678;28;20477;-79
2024/04/01 01:22:03;;;;;;;7.80;2.30;;;13.50;99.90;;;;;;5040643;28;20458;-79
2024/04/01 01:24:33;;;;;;;4.30;2.23;;;13.50;99.90;;;;;;5036396;28;20480;-82
2024/04/01 01:26:59;;;;;;;2.83;1.90;;;13.50;99.90;;;;;;5034560;28;20458;-80
2024/04/01 01:29:29;;;;;;;2.03;1.93;;;13.50;99.90;;;;;;5021499;28;20534;-81
2024/04/01 01:31:58;;;;;;;4.27;1.93;;;13.50;99.90;;;;;;5022441;28;20450;-80
2024/04/01 01:34:26;;;;;;;3.87;2.00;;;13.50;99.90;;;;;;5027521;28;20570;-79
2024/04/01 01:36:53;;;;;;;4.27;2.00;;;13.50;99.90;;;;;;5039056;28;20501;-80
2024/04/01 01:39:21;;;;;;;2.20;2.07;;;13.40;99.90;;;;;;5036548;28;20575;-80
2024/04/01 01:41:48;;;;;;;3.13;1.87;;;13.40;99.90;;;;;;5037440;28;20483;-83
2024/04/01 01:44:16;;;;;;;2.93;2.20;;;13.40;99.90;;;;;;5039342;28;20454;-81
2024/04/01 01:46:42;;;;;;;3.63;2.27;;;13.40;99.90;;;;;;5040634;28;20784;-80
2024/04/01 01:49:09;;;;;;;3.37;2.20;;;13.40;99.90;;;;;;5042574;28;21432;-81
2024/04/01 01:51:35;;;;;;;6.63;2.83;;;13.30;99.90;;;;;;5039005;28;20486;-80
2024/04/01 01:54:02;;;;;;;6.63;3.20;;;13.30;99.90;;;;;;5039154;28;21075;-80
2024/04/01 01:56:28;;;;;;;5.10;2.83;;;13.30;99.90;;;;;;5038539;28;20557;-81
2024/04/01 01:58:57;;;;;;;5.13;3.20;;;13.20;99.90;;;;;;5035719;28;21063;-80
2024/04/01 02:01:24;;;;;;;4.17;2.50;;;13.20;1.00;;;;;;5035041;28;20497;-80
2024/04/01 02:03:51;;;;;;;3.43;2.70;;;13.30;1.00;;;;;;5036954;28;20592;-81
2024/04/01 02:06:17;;;;;;;2.83;2.63;;;13.30;1.00;;;;;;5036738;28;20451;-80
2024/04/01 02:08:44;;;;;;;5.30;2.30;;;13.20;1.00;;;;;;5035795;28;20550;-79
2024/04/01 02:11:12;;;;;;;2.57;2.37;;;13.20;1.00;;;;;;5036807;28;20549;-80
2024/04/01 02:13:40;;;;;;;4.13;2.40;;;13.20;1.00;;;;;;5037725;28;20541;-80
2024/04/01 02:16:09;;;;;;;7.57;2.50;;;13.20;1.00;;;;;;5036815;28;20578;-81
2024/04/01 02:18:37;;;;;;;3.63;2.30;;;13.20;1.00;;;;;;5036874;28;21289;-82
2024/04/01 02:21:04;;;;;;;2.73;2.40;;;13.20;1.00;;;;;;5036643;28;20548;-81
2024/04/01 02:23:32;;;;;;;5.00;2.53;;;13.10;1.00;;;;;;5036982;28;20487;-82
2024/04/01 02:26:02;;;;;;;2.50;2.30;;;13.10;1.00;;;;;;5035172;28;20456;-80
2024/04/01 02:28:30;;;;;;;4.83;2.60;;;13.10;1.00;;;;;;5037218;28;20469;-80
2024/04/01 02:30:56;;;;;;;3.23;2.60;;;13.00;1.00;;;;;;5036532;28;20483;-80
2024/04/01 02:33:25;;;;;;;2.70;2.00;;;13.10;1.00;;;;;;5036265;28;20476;-80
2024/04/01 02:35:51;;;;;;;2.73;2.30;;;13.00;1.00;;;;;;5040398;28;20557;-80
2024/04/01 02:38:19;;;;;;;3.60;2.37;;;13.00;1.00;;;;;;5037861;28;20513;-80
2024/04/01 02:40:45;;;;;;;3.00;2.67;;;13.00;1.00;;;;;;5035514;28;21478;-80
2024/04/01 02:43:13;;;;;;;2.63;2.43;;;12.90;1.00;;;;;;5038274;28;20491;-79
2024/04/01 02:45:39;;;;;;;3.57;3.27;;;13.00;1.00;;;;;;5036119;28;20458;-80
2024/04/01 02:48:07;;;;;;;6.57;2.30;;;13.00;1.00;;;;;;5034761;28;20473;-80
2024/04/01 02:50:34;;;;;;;4.47;2.30;;;12.90;1.00;;;;;;5038819;28;20454;-81
2024/04/01 02:53:02;;;;;;;2.50;2.40;;;12.90;1.00;;;;;;5035974;28;20990;-80
2024/04/01 02:55:28;;;;;;;2.57;2.13;;;12.90;1.00;;;;;;5041915;28;20544;-80
2024/04/01 02:57:55;;;;;;;3.67;2.23;;;12.90;1.00;;;;;;5038068;28;21013;-80
2024/04/01 03:00:22;;;;;;;2.30;2.10;;;12.90;1.00;;;;;;5036724;28;20438;-80
2024/04/01 03:02:50;;;;;;;5.47;2.60;;;12.90;1.00;;;;;;5032897;28;20459;-81
2024/04/01 03:05:18;;;;;;;2.60;2.40;;;12.90;1.00;;;;;;5038292;28;21340;-81
2024/04/01 03:07:47;;;;;;;2.63;2.20;;;12.90;1.00;;;;;;5037948;28;20465;-79
2024/04/01 03:10:13;;;;;;;3.90;2.40;;;12.90;1.00;;;;;;5040441;28;20963;-81
2024/04/01 03:12:41;;;;;;;3.80;2.40;;;12.90;1.00;;;;;;5038094;28;20443;-79
2024/04/01 03:15:08;;;;;;;2.43;2.27;;;12.90;1.00;;;;;;5041711;28;20473;-80
2024/04/01 03:17:35;;;;;;;2.80;2.40;;;12.90;1.00;;;;;;5034405;28;20469;-79
2024/04/01 03:20:02;;;;;;;2.53;2.33;;;12.90;1.00;;;;;;5036019;28;20446;-81
2024/04/01 03:22:29;;;;;;;4.77;2.60;;;12.90;1.00;;;;;;5033419;28;20529;-79
2024/04/01 03:24:57;;;;;;;2.63;2.43;;;12.90;1.00;;;;;;5035689;28;20490;-81
2024/04/01 03:27:24;;;;;;;1.97;1.83;;;12.90;1.00;;;;;;5037246;28;20542;-80
2024/04/01 03:29:50;;;;;;;3.00;2.47;;;12.90;1.00;;;;;;5036499;28;20540;-79
2024/04/01 03:32:17;;;;;;;3.17;2.70;;;12.90;1.00;;;;;;5035778;28;21159;-79
2024/04/01 03:34:46;;;;;;;3.03;2.83;;;12.80;1.00;;;;;;5037760;28;21269;-79
2024/04/01 03:37:14;;;;;;;3.17;2.80;;;12.80;1.00;;;;;;5036157;28;20505;-78
2024/04/01 03:39:43;;;;;;;4.10;2.70;;;12.80;1.00;;;;;;5017520;28;20591;-80
2024/04/01 03:42:12;;;;;;;3.10;2.90;;;12.80;1.00;;;;;;5034858;28;20458;-81
2024/04/01 03:44:39;;;;;;;2.77;2.57;;;12.80;1.00;;;;;;5034843;28;20571;-80
2024/04/01 03:47:05;;;;;;;2.73;2.63;;;12.80;1.00;;;;;;5033535;28;20895;-78
2024/04/01 03:49:32;;;;;;;3.10;2.87;;;12.70;1.00;;;;;;5037447;28;20540;-78
2024/04/01 03:51:59;;;;;;;3.10;2.83;;;12.80;1.00;;;;;;5035512;28;20444;-79
2024/04/01 03:54:26;;;;;;;2.90;2.70;;;12.70;1.00;;;;;;5035202;28;20478;-79
2024/04/01 03:56:52;;;;;;;2.93;2.63;;;12.70;1.00;;;;;;5033959;28;20485;-80
2024/04/01 03:59:21;;;;;;;4.03;2.93;;;12.70;1.00;;;;;;5020309;28;20473;-80
2024/04/01 04:01:47;;;;;;;2.87;2.77;;;12.70;1.00;;;;;;5031967;28;20477;-79
2024/04/01 04:04:14;;;;;;;5.17;3.10;;;12.70;1.00;;;;;;5034295;28;20997;-79
2024/04/01 04:06:41;;;;;;;3.00;2.80;;;12.60;1.00;;;;;;5036268;28;20504;-81
2024/04/01 04:09:15;;;;;;;3.30;3.10;;;12.70;1.00;;;;;;5036213;28;20626;-79
2024/04/01 04:11:43;;;;;;;3.33;3.13;;;12.60;1.00;;;;;;5035751;28;20536;-78
2024/04/01 04:14:10;;;;;;;3.67;3.37;;;12.60;1.00;;;;;;5037035;28;20466;-79
2024/04/01 04:16:37;;;;;;;3.00;2.80;;;12.60;1.00;;;;;;5036503;28;20539;-79
2024/04/01 04:19:04;;;;;;;3.53;3.17;;;12.60;1.00;;;;;;5033596;28;20482;-79
2024/04/01 04:21:30;;;;;;;3.50;3.20;;;12.60;1.00;;;;;;5033898;28;20536;-79
2024/04/01 04:23:57;;;;;;;3.87;3.57;;;12.60;1.00;;;;;;5035803;28;20549;-79
2024/04/01 04:26:23;;;;;;;3.80;3.40;;;12.60;1.00;;;;;;5033589;28;20450;-80
2024/04/01 04:28:51;;;;;;;3.30;3.10;;;12.60;1.00;;;;;;5039154;28;20472;-79
2024/04/01 04:31:17;;;;;;;3.30;3.10;;;12.60;1.00;;;;;;5030465;28;20453;-79
2024/04/01 04:33:46;;;;;;;3.37;3.07;;;12.60;1.00;;;;;;5034506;28;20451;-82
2024/04/01 04:36:12;;;;;;;3.63;3.33;;;12.60;1.00;;;;;;5036709;28;20925;-79
2024/04/01 04:38:39;;;;;;;5.13;2.93;;;12.60;1.00;;;;;;5032762;28;20482;-80
2024/04/01 04:41:06;;;;;;;3.03;2.93;;;12.60;1.00;;;;;;5034023;28;21007;-82
2024/04/01 04:43:33;;;;;;;2.90;2.70;;;12.60;1.00;;;;;;5035200;28;20521;-78
2024/04/01 04:45:59;;;;;;;3.03;2.27;;;12.50;1.00;;;;;;5031831;28;20452;-79
2024/04/01 04:48:26;;;;;;;3.13;2.63;;;12.60;1.00;;;;;;5032945;28;20500;-80
2024/04/01 04:50:54;;;;;;;3.33;3.03;;;12.60;1.00;;;;;;5032891;28;20552;-78
2024/04/01 04:53:21;;;;;;;2.43;2.23;;;12.60;1.00;;;;;;5034780;28;20559;-79
2024/04/01 04:55:48;;;;;;;1.93;1.80;;;12.60;1.00;;;;;;5034272;28;20470;-79
2024/04/01 04:58:16;;;;;;;2.53;2.40;;;12.60;1.00;;;;;;5039406;28;21211;-80
2024/04/01 05:00:42;;;;;;;2.20;2.10;;;12.60;1.00;;;;;;5032695;28;20473;-79
2024/04/01 05:03:09;;;;;;;2.27;2.00;;;12.60;1.00;;;;;;5035878;28;20817;-80
2024/04/01 05:05:35;;;;;;;2.47;2.37;;;12.60;1.00;;;;;;5034189;28;20463;-79
2024/04/01 05:08:04;;;;;;;2.30;2.10;;;12.50;1.00;;;;;;5032084;28;20518;-79
2024/04/01 05:10:31;;;;;;;2.17;2.07;;;12.50;1.00;;;;;;5036316;28;21180;-79
2024/04/01 05:12:59;;;;;;;2.30;2.20;;;12.50;1.00;;;;;;5033053;28;20620;-78
2024/04/01 05:15:25;;;;;;;4.70;2.70;;;12.50;1.00;;;;;;5033651;28;20578;-79
2024/04/01 05:17:52;;;;;;;2.70;2.50;;;12.50;1.00;;;;;;5033282;28;20479;-79
2024/04/01 05:20:18;;;;;;;2.40;2.20;;;12.50;1.00;;;;;;5034221;28;20516;-80
2024/04/01 05:22:45;;;;;;;2.47;2.37;;;12.60;1.00;;;;;;5033744;28;21029;-80
2024/04/01 05:25:13;;;;;;;2.57;2.37;;;12.60;1.00;;;;;;5034443;28;20547;-79
2024/04/01 05:27:40;;;;;;;2.50;2.40;;;12.60;1.00;;;;;;5033317;28;20511;-79
2024/04/01 05:30:09;;;;;;;2.20;2.10;;;12.60;1.00;;;;;;5034294;28;20441;-79
2024/04/01 05:32:37;;;;;;;2.80;2.60;;;12.50;1.00;;;;;;5034913;28;20470;-79
2024/04/01 05:35:05;;;;;;;2.50;2.40;;;12.50;1.00;;;;;;5037007;28;20570;-78
2024/04/01 05:37:32;;;;;;;2.30;2.20;;;12.50;1.00;;;;;;5035010;28;20485;-81
2024/04/01 05:39:59;;;;;;;2.33;2.20;;;12.60;1.00;;;;;;5021384;28;20456;-79
2024/04/01 05:42:27;;;;;;;2.33;2.20;;;12.50;1.00;;;;;;5022836;28;20536;-80
2024/04/01 05:44:54;;;;;;;2.30;2.10;;;12.50;1.00;;;;;;5035103;28;20998;-79
2024/04/01 05:47:21;;;;;;;2.10;2.00;;;12.50;1.00;;;;;;5036335;28;20571;-80
2024/04/01 05:49:47;;;;;;;2.27;2.17;;;12.60;1.00;;;;;;5037321;28;20489;-79
2024/04/01 05:52:14;;;;;;;3.50;2.17;;;12.50;1.00;;;;;;5039331;28;20549;-80
2024/04/01 05:54:40;;;;;;;2.30;2.20;;;12.50;1.00;;;;;;5037208;28;20886;-80
2024/04/01 05:57:08;;;;;;;2.50;2.40;;;12.60;1.00;;;;;;5037103;28;20540;-79
2024/04/01 05:59:35;;;;;;;2.27;2.17;;;12.50;1.00;;;;;;5053811;28;20458;-80
2024/04/01 06:02:02;;;;;;;2.53;1.93;;;12.50;6.20;;;;;;5023498;28;20827;-79
2024/04/01 06:04:29;;;;;;;2.57;2.47;;;12.50;29.90;;;;;;5034993;28;20927;-81
2024/04/01 06:06:56;;;;;;;1.83;1.83;;;12.50;79.60;;;;;;5036226;28;20901;-80
2024/04/01 06:09:22;;;;;;;2.00;1.90;;;12.50;99.90;;;;;;5033870;28;20447;-81
2024/04/01 06:11:49;;;;;;;2.40;2.30;;;12.50;99.90;;;;;;5037824;28;21345;-82
2024/04/01 06:14:15;;;;;;;2.17;2.07;;;12.50;99.90;;;;;;5038902;28;20475;-79
2024/04/01 06:16:44;;;;;;;2.10;2.00;;;12.50;99.90;;;;;;5036629;28;20481;-80
2024/04/01 06:19:10;;;;;;;3.53;3.33;;;12.50;99.90;;;;;;5037150;28;20473;-81
2024/04/01 06:21:37;;;;;;;2.10;2.00;;;12.40;99.90;;;;;;5035230;28;20445;-80
2024/04/01 06:24:03;;;;;;;2.00;2.00;;;12.40;99.90;;;;;;5035960;28;20818;-80
2024/04/01 06:26:33;;;;;;;2.30;2.13;;;12.40;99.90;;;;;;5034138;28;20462;-80
2024/04/01 06:28:59;;;;;;;1.90;1.80;;;12.40;99.90;;;;;;5035201;28;21071;-79
2024/04/01 06:31:26;;;;;;;3.90;2.20;;;12.40;99.90;;;;;;5037099;28;20570;-80
2024/04/01 06:33:53;;;;;;;2.00;1.90;;;12.40;99.90;;;;;;5037862;28;20866;-79
2024/04/01 06:36:22;;;;;;;2.40;2.30;;;12.40;99.90;;;;;;5036696;28;20474;-80
2024/04/01 06:38:48;;;;;;;2.60;2.40;;;12.40;99.90;;;;;;5037847;28;20565;-81
2024/04/01 06:41:15;;;;;;;2.53;2.43;;;12.40;99.90;;;;;;5037505;28;20554;-81
2024/04/01 06:43:42;;;;;;;4.03;3.53;;;12.50;99.90;;;;;;5025414;28;20538;-80
2024/04/01 06:46:09;;;;;;;2.17;2.07;;;12.60;99.90;;;;;;5033439;28;21412;-80
2024/04/01 06:48:35;;;;;;;2.00;1.90;;;12.50;99.90;;;;;;5044443;28;21074;-81
2024/04/01 06:51:04;;;;;;;2.47;2.37;;;12.50;99.90;;;;;;5048017;28;20550;-81
2024/04/01 06:53:30;;;;;;;4.20;3.17;;;12.50;99.90;;;;;;5040965;28;20451;-81
2024/04/01 06:55:57;;;;;;;2.80;2.60;;;12.70;99.90;;;;;;5037109;28;20513;-80
2024/04/01 06:58:24;;;;;;;2.90;2.70;;;12.60;99.90;;;;;;5033982;28;20474;-82
2024/04/01 07:00:51;;;;;;;2.53;2.40;;;12.40;99.90;;;;;;5037373;28;20524;-81
2024/04/01 07:03:17;;;;;;;2.53;2.33;;;12.40;1.00;;;;;;5038416;28;20541;-79
2024/04/01 07:05:44;;;;;;;2.77;2.57;;;12.30;99.90;;;;;;5034915;28;21346;-80
2024/04/01 07:08:12;;;;;;;4.17;2.50;;;12.40;1.00;;;;;;5035555;28;20518;-80
2024/04/01 07:10:39;;;;;;;2.80;2.60;;;12.30;1.00;;;;;;5041699;28;21120;-81
2024/04/01 07:13:05;;;;;;;2.90;2.70;;;12.40;1.00;;;;;;5038749;28;20463;-80
2024/04/01 07:15:34;;;;;;;2.70;2.60;;;12.40;1.00;;;;;;5038901;28;20564;-81
2024/04/01 07:18:00;;;;;;;3.20;3.00;;;12.40;1.00;;;;;;5038381;28;20516;-83
2024/04/01 07:20:27;;;;;;;4.20;3.90;;;12.40;1.30;;;;;;5040277;28;20591;-79
2024/04/01 07:22:53;;;;;;;5.37;3.90;;;12.40;99.90;;;;;;5036129;28;20498;-81
2024/04/01 07:25:22;;;;;;;3.53;3.10;;;12.40;99.90;;;;;;5038008;28;20494;-80
2024/04/01 07:27:48;;;;;;;4.43;4.23;;;12.50;99.90;;;;;;5038467;28;20829;-83
2024/04/01 07:30:16;;;;;;;3.53;3.33;;;12.50;1.00;;;;;;5038936;28;20497;-78
2024/04/01 07:32:43;;;;;;;3.67;3.47;;;12.50;48.20;;;;;;5036596;28;20448;-80
2024/04/01 07:35:11;;;;;;;2.90;2.70;;;12.50;83.60;;;;;;5037013;28;20574;-81
2024/04/01 07:37:37;;;;;;;3.27;3.07;;;12.50;20.60;;;;;;5034835;28;21101;-82
2024/04/01 07:40:04;;;;;;;3.33;3.20;;;12.50;1.00;;;;;;5037290;28;20502;-82
2024/04/01 07:42:32;;;;;;;3.40;3.20;;;12.50;1.00;;;;;;5036363;28;20454;-80
2024/04/01 07:44:59;;;;;;;3.10;2.80;;;12.50;1.00;;;;;;5017533;28;20461;-81
2024/04/01 07:47:26;;;;;;;3.40;3.20;;;12.50;13.90;;;;;;5038803;28;20573;-80
2024/04/01 07:49:53;;;;;;;2.70;2.60;;;12.50;1.00;;;;;;5036927;28;20445;-82
2024/04/01 07:52:20;;;;;;;3.23;3.00;;;12.50;99.90;;;;;;5039566;28;21145;-81
2024/04/01 07:54:47;;;;;;;2.80;2.60;;;12.40;99.90;;;;;;5041391;28;20455;-80
2024/04/01 07:57:13;;;;;;;2.70;2.50;;;12.40;1.00;;;;;;5037567;28;22343;-80
2024/04/01 07:59:43;;;;;;;2.37;2.27;;;12.40;1.00;;;;;;5032888;28;20910;-80
2024/04/01 08:02:10;;;;;;;2.93;2.70;;;12.40;1.00;;;;;;5031933;28;20954;-80
2024/04/01 08:04:37;;;;;;;2.53;2.43;;;12.50;1.00;;;;;;5035028;28;20466;-81
2024/04/01 08:07:03;;;;;;;2.20;2.10;;;12.50;99.90;;;;;;5034921;28;20544;-79
2024/04/01 08:09:31;;;;;;;2.03;2.00;;;12.30;99.90;;;;;;5038608;28;20534;-86
2024/04/01 08:11:57;;;;;;;1.80;1.80;;;12.30;99.90;;;;;;5036896;28;20489;-80
2024/04/01 08:14:24;;;;;;;2.00;1.90;;;12.30;99.90;;;;;;5037444;28;20454;-84
2024/04/01 08:16:51;;;;;;;1.83;1.83;;;12.30;99.90;;;;;;5038960;28;20470;-80
2024/04/01 08:19:19;;;;;;;2.10;2.00;;;12.30;99.90;;;;;;5035698;28;20496;-79
2024/04/01 08:21:45;;;;;;;1.70;1.70;;;12.30;99.90;;;;;;5039017;28;20486;-81
2024/04/01 08:24:12;;;;;;;1.90;1.80;;;12.20;99.90;;;;;;5038743;28;20467;-81
2024/04/01 08:26:38;;;;;;;1.83;1.73;;;12.10;1.00;;;;;;5034360;28;20486;-82
2024/04/01 08:29:05;;;;;;;1.77;1.70;;;12.10;26.90;;;;;;5036567;28;21087;-81
2024/04/01 08:31:32;;;;;;;1.60;1.60;;;12.10;10.30;;;;;;5040774;28;20539;-79
2024/04/01 08:34:01;;;;;;;1.60;1.60;;;12.10;3.20;;;;;;5037550;28;20889;-82
2024/04/01 08:36:27;;;;;;;1.60;1.60;;;12.00;1.00;;;;;;5040623;28;20480;-78
2024/04/01 08:38:54;;;;;;;3.00;2.80;;;12.00;94.10;;;;;;5033003;28;20472;-79
2024/04/01 08:41:30;;;;;;;1.60;1.60;;;11.90;1.00;;;;;;5035922;28;20548;-80
2024/04/01 08:44:07;;;;;;;1.53;1.53;;;12.00;99.90;;;;;;5040523;28;20452;-79
2024/04/01 08:46:39;;;;;;;1.50;1.50;;;12.10;84.40;;;;;;5044652;28;20449;-81
2024/04/01 08:49:10;;;;;;;1.60;1.50;;;12.00;1.00;;;;;;5041383;28;20476;-81
2024/04/01 08:51:38;;;;;;;1.50;1.50;;;11.90;1.00;;;;;;5041163;28;20473;-81
2024/04/01 08:54:07;;;;;;;2.67;2.33;;;11.80;1.00;;;;;;5041366;28;20459;-82
2024/04/01 08:56:36;;;;;;;2.17;1.60;;;11.80;1.00;;;;;;5047822;28;21081;-81
2024/04/01 08:59:04;;;;;;;1.40;1.40;;;11.90;1.00;;;;;;5040498;28;20471;-83
2024/04/01 09:01:30;;;;;;;1.60;1.50;;;11.90;1.00;;;;;;5040953;28;21034;-81
2024/04/01 09:03:57;;;;;;;1.60;1.50;;;11.90;1.00;;;;;;5040731;28;20313;-81
2024/04/01 09:06:25;;;;;;;1.87;1.80;;;11.90;1.00;;;;;;5023372;28;20449;-79
2024/04/01 09:08:54;;;;;;;1.40;1.40;;;11.90;1.00;;;;;;5042088;28;20500;-80
2024/04/01 09:11:21;;;;;;;1.40;1.40;;;11.90;1.00;;;;;;5042887;28;20492;-80
2024/04/01 09:13:49;;;;;;;1.50;1.50;;;11.90;1.00;;;;;;5045646;28;20534;-82
2024/04/01 09:16:20;;;;;;;1.60;1.60;;;11.90;1.00;;;;;;5043562;28;20882;-83
2024/04/01 09:18:47;;;;;;;1.50;1.50;;;11.90;1.00;;;;;;5044383;28;20514;-84
2024/04/01 09:21:13;;;;;;;1.53;1.53;;;11.90;1.00;;;;;;5041593;28;20515;-81
2024/04/01 09:23:43;;;;;;;1.43;1.43;;;11.90;1.00;;;;;;5039678;28;20496;-80
2024/04/01 09:26:09;;;;;;;1.40;1.40;;;11.80;1.00;;;;;;5037343;28;20494;-80
2024/04/01 09:28:37;;;;;;;1.50;1.50;;;11.80;1.00;;;;;;5036298;28;20502;-81
2024/04/01 09:31:03;;;;;;;1.30;1.30;;;11.80;1.00;;;;;;5037725;28;20527;-80
2024/04/01 09:33:31;;;;;;;2.47;2.37;;;11.80;1.00;;;;;;5040210;28;20462;-81
2024/04/01 09:35:57;;;;;;;1.30;1.30;;;11.70;1.00;;;;;;5038774;28;20488;-81
2024/04/01 09:38:25;;;;;;;1.30;1.30;;;11.60;1.00;;;;;;5045787;28;21121;-82
2024/04/01 09:40:56;;;;;;;1.47;1.37;;;11.60;1.00;;;;;;5042381;28;20950;-83
2024/04/01 09:43:27;;;;;;;1.40;1.40;;;11.70;1.00;;;;;;5040782;28;21302;-82
2024/04/01 09:45:53;;;;;;;1.40;1.40;;;11.70;1.00;;;;;;5042216;28;20560;-80
2024/04/01 09:48:25;;;;;;;1.23;1.23;;;11.70;1.00;;;;;;5041896;28;20574;-81
2024/04/01 09:50:53;;;;;;;1.30;1.30;;;11.60;1.00;;;;;;5029073;28;20475;-82
2024/04/01 09:53:20;;;;;;;1.30;1.30;;;11.70;1.00;;;;;;5044167;28;20976;-81
2024/04/01 09:56:28;;;;;;;1.20;1.20;;;11.60;99.90;;;;;;5037169;28;21094;-80
2024/04/01 09:59:33;;;;;;;1.20;1.20;;;11.50;99.90;;;;;;4947802;28;21214;-80
2024/04/01 10:02:20;;;;;;;1.20;1.20;;;11.70;99.90;;;;;;5024535;28;20444;-80
2024/04/01 10:05:06;;;;;;;1.20;1.20;;;11.80;1.00;;;;;;5037446;28;20443;-80
2024/04/01 10:08:11;;;;;;;1.20;1.20;;;11.70;99.90;;;;;;5038190;28;20467;-80
2024/04/01 10:11:08;;;;;;;1.20;1.20;;;11.40;99.90;;;;;;5035806;28;20437;-82
2024/04/01 10:14:24;;;;;;;1.30;1.30;;;11.50;99.90;;;;;;5038570;28;20965;-79
2024/04/01 10:17:11;;;;;;;1.10;1.10;;;11.50;99.90;;;;;;5036620;28;20460;-81
2024/04/01 10:20:00;;;;;;;1.20;1.20;;;11.40;99.90;;;;;;5036507;28;20449;-81
2024/04/01 10:23:09;;;;;;;1.10;1.10;;;11.40;99.90;;;;;;5036633;28;20441;-80
2024/04/01 10:26:20;;;;;;;1.73;1.63;;;11.50;99.90;;;;;;5023285;28;20451;-82
2024/04/01 10:29:10;;;;;;;1.27;1.10;;;11.50;99.90;;;;;;5025934;28;20474;-80
2024/04/01 10:32:15;;;;;;;1.10;1.10;;;11.50;99.90;;;;;;5038869;28;20932;-82
2024/04/01 10:35:15;;;;;;;1.10;1.10;;;11.50;99.90;;;;;;5009404;28;20447;-81
2024/04/01 10:38:22;;;;;;;1.20;1.20;;;11.50;99.90;;;;;;5042390;28;20574;-80
2024/04/01 10:41:15;;;;;;;1.40;1.40;;;11.50;99.90;;;;;;5041156;28;20485;-82
2024/04/01 10:44:09;;;;;;;1.10;1.10;;;11.50;99.90;;;;;;5042916;28;20459;-80
2024/04/01 10:46:50;;;;;;;1.10;1.10;;;11.50;99.90;;;;;;5038011;28;20289;-81
2024/04/01 10:50:00;;;;;;;1.20;1.20;;;11.50;99.90;;;;;;5044939;28;20566;-85
2024/04/01 10:53:14;;;;;;;1.20;1.20;;;11.50;99.90;;;;;;4994716;28;20541;-81
2024/04/01 10:56:12;;;;;;;1.10;1.10;;;11.50;99.90;;;;;;4978052;28;20496;-81
2024/04/01 10:59:23;;;;;;;1.20;1.20;;;11.40;99.90;;;;;;5039539;28;20484;-82
2024/04/01 11:02:08;;;;;;;1.10;1.10;;;11.50;99.90;;;;;;5041490;28;20442;-83
2024/04/01 11:05:13;;;;;;;1.23;1.23;;;11.50;99.90;;;;;;5041983;28;20579;-83
2024/04/01 11:07:53;;;;;;;1.20;1.20;;;11.30;99.90;;;;;;5037024;28;20462;-83
2024/04/01 11:10:33;;;;;;;1.20;1.20;;;11.30;99.90;;;;;;5042284;28;20479;-82
2024/04/01 11:13:05;;;;;;;1.30;1.30;;;11.30;99.90;;;;;;5039469;28;20259;-82
2024/04/01 11:15:32;;;;;;;1.93;1.83;;;11.40;99.90;;;;;;5040791;28;20548;-83
2024/04/01 11:18:16;;;;;;;1.10;1.10;;;11.50;99.90;;;;;;5027234;28;21010;-82
2024/04/01 11:20:47;;;;;;;1.30;1.30;;;11.40;99.90;;;;;;5038935;28;20483;-83
2024/04/01 11:23:49;;;;;;;1.60;1.50;;;11.40;99.90;;;;;;5039357;28;20449;-83
2024/04/01 11:26:46;;;;;;;1.60;1.50;;;11.40;99.90;;;;;;5038271;28;20495;-82
2024/04/01 11:29:26;;;;;;;1.20;1.20;;;11.50;99.90;;;;;;5042039;28;20519;-82
2024/04/01 11:32:00;;;;;;;1.90;1.20;;;11.50;99.90;;;;;;5046566;28;20979;-84
2024/04/01 11:34:35;;;;;;;1.20;1.20;;;11.60;99.90;;;;;;5039094;28;21217;-82
2024/04/01 11:37:12;;;;;;;1.20;1.20;;;11.50;99.90;;;;;;5039647;28;20306;-79
2024/04/01 11:39:42;;;;;;;1.10;1.10;;;11.50;99.90;;;;;;5041667;28;20453;-81
2024/04/01 11:42:14;;;;;;;1.20;1.20;;;11.60;99.90;;;;;;5036291;28;21265;-82
2024/04/01 11:44:43;;;;;;;1.23;1.23;;;11.70;99.90;;;;;;5039458;28;20483;-81
2024/04/01 11:47:12;;;;;;;1.30;1.30;;;11.70;99.90;;;;;;5038599;28;20440;-79
2024/04/01 11:49:38;;;;;;;1.20;1.20;;;11.80;99.90;;;;;;5034112;28;20455;-82
2024/04/01 11:52:13;;;;;;;1.10;1.10;;;11.80;99.90;;;;;;5036998;28;20542;-80
2024/04/01 11:54:39;;;;;;;1.10;1.10;;;11.80;99.90;;;;;;5042508;28;20462;-81
2024/04/01 11:57:06;;;;;;;1.30;1.20;;;11.80;99.90;;;;;;5035537;28;20569;-79
2024/04/01 11:59:36;;;;;;;1.20;1.20;;;11.70;99.90;;;;;;5034068;28;20496;-79
2024/04/01 12:02:12;;;;;;;1.20;1.20;;;11.80;99.90;;;;;;5034598;28;20557;-78
2024/04/01 12:04:38;;;;;;;1.10;1.10;;;11.90;99.90;;;;;;5035869;28;20492;-79
2024/04/01 12:07:05;;;;;;;1.10;1.10;;;12.00;99.90;;;;;;5032364;28;20455;-79
2024/04/01 12:09:33;;;;;;;1.20;1.20;;;12.00;99.90;;;;;;5033185;28;20951;-79
2024/04/01 12:12:00;;;;;;;1.10;1.10;;;12.00;99.90;;;;;;5034985;28;20553;-78
2024/04/01 12:14:27;;;;;;;1.20;1.20;;;12.10;99.90;;;;;;5038757;28;20522;-78
2024/04/01 12:17:00;;;;;;;1.10;1.10;;;12.20;99.90;;;;;;5020782;28;20471;-79
2024/04/01 12:19:26;;;;;;;9.87;1.70;;;12.10;99.90;;;;;;5037680;28;20482;-79
2024/04/01 12:21:54;;;;;;;1.40;1.40;;;12.10;99.90;;;;;;5043791;28;20456;-80
2024/04/01 12:24:20;;;;;;;1.20;1.20;;;12.10;99.90;;;;;;5042930;28;20458;-80
2024/04/01 12:26:51;;;;;;;1.10;1.10;;;12.10;99.90;;;;;;5024030;28;20513;-79
2024/04/01 12:29:18;;;;;;;1.43;1.40;;;12.10;99.90;;;;;;5036817;28;20512;-81
2024/04/01 12:31:49;;;;;;;1.10;1.10;;;12.20;99.90;;;;;;5040538;28;20453;-80
2024/04/01 12:34:17;;;;;;;1.10;1.10;;;12.20;99.90;;;;;;5034868;28;20538;-81
2024/04/01 12:36:47;;;;;;;1.10;1.10;;;12.10;99.90;;;;;;5037864;28;20463;-80
2024/04/01 12:39:14;;;;;;;1.20;1.20;;;12.20;99.90;;;;;;5036681;28;20498;-81
2024/04/01 12:41:44;;;;;;;1.20;1.20;;;12.20;99.90;;;;;;5038779;28;21241;-83
2024/04/01 12:44:13;;;;;;;1.40;1.40;;;12.10;99.90;;;;;;5020959;28;21267;-81
2024/04/01 12:46:42;;;;;;;1.20;1.20;;;12.10;99.90;;;;;;5036255;28;20495;-80
2024/04/01 12:49:12;;;;;;;1.10;1.10;;;12.00;99.90;;;;;;5031158;28;20561;-83
2024/04/01 12:51:42;;;;;;;1.10;1.10;;;12.00;99.90;;;;;;5036312;28;20471;-79
2024/04/01 12:57:28;;;;;;;1.20;1.20;;;12.00;99.90;;;;;;5080415;27;20564;-81
2024/04/01 13:00:03;;;;;;;1.10;1.10;;;12.00;99.90;;;;;;5052602;28;20810;-84
2024/04/01 13:02:53;;;;;;;1.37;1.30;;;12.10;99.90;;;;;;5073525;28;20975;-80
2024/04/01 13:05:21;;;;;;;1.27;1.27;;;12.10;99.90;;;;;;5074387;28;20457;-81
2024/04/01 13:07:58;;;;;;;1.10;1.10;;;12.10;99.90;;;;;;5074923;28;20505;-80
2024/04/01 13:10:27;;;;;;;1.10;1.10;;;12.00;99.90;;;;;;5056092;28;20531;-80